sensor_id;sensor_type;location;lat;lon;timestamp;P1;durP1;ratioP1;P2;durP2;ratioP2
23743;SDS011;12052;53.478;10.182;2023-05-07T00:00:18;15.88;;;8.70;;
23743;SDS011;12052;53.478;10.182;2023-05-07T00:02:44;17.73;;;9.00;;
23743;SDS011;12052;53.478;10.182;2023-05-07T00:05:10;15.40;;;9.23;;
23743;SDS011;12052;53.478;10.182;2023-05-07T00:07:36;17.60;;;9.40;;
23743;SDS011;12052;53.478;10.182;2023-05-07T00:10:02;15.10;;;8.10;;
23743;SDS011;12052;53.478;10.182;2023-05-07T00:12:28;14.88;;;9.07;;
23743;SDS011;12052;53.478;10.182;2023-05-07T00:14:58;17.67;;;8.73;;
23743;SDS011;12052;53.478;10.182;2023-05-07T00:17:25;12.73;;;7.53;;
23743;SDS011;12052;53.478;10.182;2023-05-07T00:19:50;16.40;;;8.30;;
23743;SDS011;12052;53.478;10.182;2023-05-07T00:22:16;16.95;;;8.85;;
23743;SDS011;12052;53.478;10.182;2023-05-07T00:24:42;12.43;;;7.70;;
23743;SDS011;12052;53.478;10.182;2023-05-07T00:27:08;9.90;;;5.85;;
23743;SDS011;12052;53.478;10.182;2023-05-07T00:29:33;12.05;;;7.47;;
23743;SDS011;12052;53.478;10.182;2023-05-07T00:31:59;16.35;;;7.95;;
23743;SDS011;12052;53.478;10.182;2023-05-07T00:34:24;14.40;;;7.10;;
23743;SDS011;12052;53.478;10.182;2023-05-07T00:36:50;14.13;;;7.65;;
23743;SDS011;12052;53.478;10.182;2023-05-07T00:39:16;13.85;;;7.82;;
23743;SDS011;12052;53.478;10.182;2023-05-07T00:41:41;14.80;;;8.30;;
23743;SDS011;12052;53.478;10.182;2023-05-07T00:44:07;13.02;;;7.57;;
23743;SDS011;12052;53.478;10.182;2023-05-07T00:46:33;14.48;;;7.85;;
23743;SDS011;12052;53.478;10.182;2023-05-07T00:48:59;16.77;;;8.38;;
23743;SDS011;12052;53.478;10.182;2023-05-07T00:51:25;15.80;;;8.38;;
23743;SDS011;12052;53.478;10.182;2023-05-07T00:53:52;14.75;;;8.10;;
23743;SDS011;12052;53.478;10.182;2023-05-07T00:56:18;13.25;;;7.03;;
23743;SDS011;12052;53.478;10.182;2023-05-07T00:58:46;12.00;;;6.97;;
23743;SDS011;12052;53.478;10.182;2023-05-07T01:01:12;14.50;;;7.95;;
23743;SDS011;12052;53.478;10.182;2023-05-07T01:03:38;12.80;;;7.30;;
23743;SDS011;12052;53.478;10.182;2023-05-07T01:06:03;9.70;;;5.13;;
23743;SDS011;12052;53.478;10.182;2023-05-07T01:08:31;13.07;;;6.68;;
23743;SDS011;12052;53.478;10.182;2023-05-07T01:10:57;11.65;;;7.03;;
23743;SDS011;12052;53.478;10.182;2023-05-07T01:13:24;12.60;;;7.38;;
23743;SDS011;12052;53.478;10.182;2023-05-07T01:15:50;9.48;;;6.50;;
23743;SDS011;12052;53.478;10.182;2023-05-07T01:18:16;13.10;;;7.20;;
23743;SDS011;12052;53.478;10.182;2023-05-07T01:20:42;10.80;;;6.43;;
23743;SDS011;12052;53.478;10.182;2023-05-07T01:23:07;8.60;;;5.40;;
23743;SDS011;12052;53.478;10.182;2023-05-07T01:25:35;11.95;;;6.05;;
23743;SDS011;12052;53.478;10.182;2023-05-07T01:28:01;11.30;;;6.80;;
23743;SDS011;12052;53.478;10.182;2023-05-07T01:30:27;10.88;;;6.60;;
23743;SDS011;12052;53.478;10.182;2023-05-07T01:32:56;11.60;;;5.93;;
23743;SDS011;12052;53.478;10.182;2023-05-07T01:35:24;9.40;;;5.50;;
23743;SDS011;12052;53.478;10.182;2023-05-07T01:37:53;9.88;;;6.07;;
23743;SDS011;12052;53.478;10.182;2023-05-07T01:40:20;8.85;;;6.00;;
23743;SDS011;12052;53.478;10.182;2023-05-07T01:42:46;8.93;;;5.47;;
23743;SDS011;12052;53.478;10.182;2023-05-07T01:45:13;10.65;;;6.22;;
23743;SDS011;12052;53.478;10.182;2023-05-07T01:47:38;9.77;;;6.35;;
23743;SDS011;12052;53.478;10.182;2023-05-07T01:50:07;10.30;;;6.40;;
23743;SDS011;12052;53.478;10.182;2023-05-07T01:52:35;11.80;;;7.50;;
23743;SDS011;12052;53.478;10.182;2023-05-07T01:55:02;12.60;;;7.43;;
23743;SDS011;12052;53.478;10.182;2023-05-07T01:57:28;10.93;;;6.88;;
23743;SDS011;12052;53.478;10.182;2023-05-07T01:59:54;9.95;;;6.22;;
23743;SDS011;12052;53.478;10.182;2023-05-07T02:02:19;11.27;;;7.00;;
23743;SDS011;12052;53.478;10.182;2023-05-07T02:04:45;14.48;;;7.07;;
23743;SDS011;12052;53.478;10.182;2023-05-07T02:07:10;11.40;;;6.55;;
23743;SDS011;12052;53.478;10.182;2023-05-07T02:09:36;12.65;;;7.28;;
23743;SDS011;12052;53.478;10.182;2023-05-07T02:12:02;13.77;;;7.55;;
23743;SDS011;12052;53.478;10.182;2023-05-07T02:14:27;10.77;;;6.35;;
23743;SDS011;12052;53.478;10.182;2023-05-07T02:16:53;10.90;;;6.40;;
23743;SDS011;12052;53.478;10.182;2023-05-07T02:19:19;17.02;;;7.57;;
23743;SDS011;12052;53.478;10.182;2023-05-07T02:21:46;15.30;;;7.32;;
23743;SDS011;12052;53.478;10.182;2023-05-07T02:24:12;12.82;;;6.70;;
23743;SDS011;12052;53.478;10.182;2023-05-07T02:26:37;12.82;;;7.47;;
23743;SDS011;12052;53.478;10.182;2023-05-07T02:29:04;15.00;;;6.90;;
23743;SDS011;12052;53.478;10.182;2023-05-07T02:31:29;12.15;;;6.65;;
23743;SDS011;12052;53.478;10.182;2023-05-07T02:33:55;11.60;;;5.95;;
23743;SDS011;12052;53.478;10.182;2023-05-07T02:36:21;13.02;;;6.85;;
23743;SDS011;12052;53.478;10.182;2023-05-07T02:38:46;15.35;;;6.60;;
23743;SDS011;12052;53.478;10.182;2023-05-07T02:41:12;11.35;;;6.13;;
23743;SDS011;12052;53.478;10.182;2023-05-07T02:43:37;12.68;;;6.72;;
23743;SDS011;12052;53.478;10.182;2023-05-07T02:46:03;12.35;;;6.93;;
23743;SDS011;12052;53.478;10.182;2023-05-07T02:48:30;15.15;;;8.10;;
23743;SDS011;12052;53.478;10.182;2023-05-07T02:50:56;12.60;;;6.65;;
23743;SDS011;12052;53.478;10.182;2023-05-07T02:53:22;13.75;;;7.38;;
23743;SDS011;12052;53.478;10.182;2023-05-07T02:55:47;12.52;;;7.43;;
23743;SDS011;12052;53.478;10.182;2023-05-07T02:58:13;12.65;;;7.68;;
23743;SDS011;12052;53.478;10.182;2023-05-07T03:00:38;12.57;;;7.25;;
23743;SDS011;12052;53.478;10.182;2023-05-07T03:03:04;15.40;;;8.15;;
23743;SDS011;12052;53.478;10.182;2023-05-07T03:05:29;15.98;;;8.00;;
23743;SDS011;12052;53.478;10.182;2023-05-07T03:07:55;15.55;;;7.63;;
23743;SDS011;12052;53.478;10.182;2023-05-07T03:10:21;14.30;;;7.43;;
23743;SDS011;12052;53.478;10.182;2023-05-07T03:12:46;13.10;;;6.97;;
23743;SDS011;12052;53.478;10.182;2023-05-07T03:15:12;14.95;;;7.85;;
23743;SDS011;12052;53.478;10.182;2023-05-07T03:17:38;11.57;;;6.85;;
23743;SDS011;12052;53.478;10.182;2023-05-07T03:20:04;11.40;;;7.78;;
23743;SDS011;12052;53.478;10.182;2023-05-07T03:22:30;13.77;;;7.20;;
23743;SDS011;12052;53.478;10.182;2023-05-07T03:24:55;13.57;;;7.18;;
23743;SDS011;12052;53.478;10.182;2023-05-07T03:27:21;12.48;;;6.80;;
23743;SDS011;12052;53.478;10.182;2023-05-07T03:29:47;11.20;;;7.00;;
23743;SDS011;12052;53.478;10.182;2023-05-07T03:32:12;13.80;;;6.35;;
23743;SDS011;12052;53.478;10.182;2023-05-07T03:34:38;16.00;;;8.35;;
23743;SDS011;12052;53.478;10.182;2023-05-07T03:37:03;13.73;;;7.63;;
23743;SDS011;12052;53.478;10.182;2023-05-07T03:39:29;11.85;;;7.03;;
23743;SDS011;12052;53.478;10.182;2023-05-07T03:41:55;12.73;;;7.70;;
23743;SDS011;12052;53.478;10.182;2023-05-07T03:44:21;12.38;;;7.63;;
23743;SDS011;12052;53.478;10.182;2023-05-07T03:46:47;14.73;;;7.53;;
23743;SDS011;12052;53.478;10.182;2023-05-07T03:49:12;12.50;;;7.50;;
23743;SDS011;12052;53.478;10.182;2023-05-07T03:51:38;13.10;;;7.57;;
23743;SDS011;12052;53.478;10.182;2023-05-07T03:54:03;14.52;;;7.68;;
23743;SDS011;12052;53.478;10.182;2023-05-07T03:56:29;14.45;;;7.78;;
23743;SDS011;12052;53.478;10.182;2023-05-07T03:58:56;12.52;;;6.88;;
23743;SDS011;12052;53.478;10.182;2023-05-07T04:01:21;14.27;;;8.00;;
23743;SDS011;12052;53.478;10.182;2023-05-07T04:03:47;13.45;;;6.88;;
23743;SDS011;12052;53.478;10.182;2023-05-07T04:06:12;11.85;;;7.03;;
23743;SDS011;12052;53.478;10.182;2023-05-07T04:08:38;13.55;;;6.72;;
23743;SDS011;12052;53.478;10.182;2023-05-07T04:11:04;13.15;;;7.00;;
23743;SDS011;12052;53.478;10.182;2023-05-07T04:13:29;11.10;;;7.22;;
23743;SDS011;12052;53.478;10.182;2023-05-07T04:15:55;13.15;;;7.68;;
23743;SDS011;12052;53.478;10.182;2023-05-07T04:18:21;13.48;;;7.97;;
23743;SDS011;12052;53.478;10.182;2023-05-07T04:20:47;12.32;;;6.82;;
23743;SDS011;12052;53.478;10.182;2023-05-07T04:23:14;13.70;;;6.85;;
23743;SDS011;12052;53.478;10.182;2023-05-07T04:25:40;12.05;;;6.95;;
23743;SDS011;12052;53.478;10.182;2023-05-07T04:28:06;12.85;;;6.80;;
23743;SDS011;12052;53.478;10.182;2023-05-07T04:30:32;13.15;;;7.05;;
23743;SDS011;12052;53.478;10.182;2023-05-07T04:32:57;13.02;;;6.80;;
23743;SDS011;12052;53.478;10.182;2023-05-07T04:35:23;11.35;;;6.22;;
23743;SDS011;12052;53.478;10.182;2023-05-07T04:37:48;11.77;;;7.30;;
23743;SDS011;12052;53.478;10.182;2023-05-07T04:40:14;9.95;;;6.60;;
23743;SDS011;12052;53.478;10.182;2023-05-07T04:42:40;11.82;;;7.32;;
23743;SDS011;12052;53.478;10.182;2023-05-07T04:45:06;13.07;;;6.97;;
23743;SDS011;12052;53.478;10.182;2023-05-07T04:47:33;11.13;;;6.00;;
23743;SDS011;12052;53.478;10.182;2023-05-07T04:49:59;11.25;;;6.45;;
23743;SDS011;12052;53.478;10.182;2023-05-07T04:52:24;11.20;;;7.20;;
23743;SDS011;12052;53.478;10.182;2023-05-07T04:54:50;9.75;;;5.50;;
23743;SDS011;12052;53.478;10.182;2023-05-07T04:57:16;10.73;;;6.60;;
23743;SDS011;12052;53.478;10.182;2023-05-07T04:59:42;10.35;;;6.60;;
23743;SDS011;12052;53.478;10.182;2023-05-07T05:02:08;9.32;;;5.70;;
23743;SDS011;12052;53.478;10.182;2023-05-07T05:04:34;10.15;;;6.45;;
23743;SDS011;12052;53.478;10.182;2023-05-07T05:07:00;11.93;;;6.20;;
23743;SDS011;12052;53.478;10.182;2023-05-07T05:09:26;13.68;;;7.03;;
23743;SDS011;12052;53.478;10.182;2023-05-07T05:11:51;12.18;;;7.28;;
23743;SDS011;12052;53.478;10.182;2023-05-07T05:14:17;12.70;;;6.80;;
23743;SDS011;12052;53.478;10.182;2023-05-07T05:16:42;11.45;;;6.47;;
23743;SDS011;12052;53.478;10.182;2023-05-07T05:19:08;11.85;;;6.43;;
23743;SDS011;12052;53.478;10.182;2023-05-07T05:21:33;11.93;;;6.57;;
23743;SDS011;12052;53.478;10.182;2023-05-07T05:23:59;10.40;;;5.88;;
23743;SDS011;12052;53.478;10.182;2023-05-07T05:26:25;11.13;;;7.13;;
23743;SDS011;12052;53.478;10.182;2023-05-07T05:28:50;11.80;;;6.45;;
23743;SDS011;12052;53.478;10.182;2023-05-07T05:31:16;9.43;;;5.80;;
23743;SDS011;12052;53.478;10.182;2023-05-07T05:33:42;9.73;;;6.18;;
23743;SDS011;12052;53.478;10.182;2023-05-07T05:36:10;10.82;;;6.47;;
23743;SDS011;12052;53.478;10.182;2023-05-07T05:38:37;11.40;;;7.10;;
23743;SDS011;12052;53.478;10.182;2023-05-07T05:41:03;10.73;;;6.60;;
23743;SDS011;12052;53.478;10.182;2023-05-07T05:43:29;13.75;;;7.07;;
23743;SDS011;12052;53.478;10.182;2023-05-07T05:45:55;10.45;;;6.70;;
23743;SDS011;12052;53.478;10.182;2023-05-07T05:48:21;12.80;;;7.25;;
23743;SDS011;12052;53.478;10.182;2023-05-07T05:50:46;12.13;;;5.75;;
23743;SDS011;12052;53.478;10.182;2023-05-07T05:53:12;12.38;;;6.63;;
23743;SDS011;12052;53.478;10.182;2023-05-07T05:55:37;12.88;;;6.93;;
23743;SDS011;12052;53.478;10.182;2023-05-07T05:58:03;13.05;;;7.00;;
23743;SDS011;12052;53.478;10.182;2023-05-07T06:00:28;10.05;;;6.80;;
23743;SDS011;12052;53.478;10.182;2023-05-07T06:02:54;11.38;;;6.63;;
23743;SDS011;12052;53.478;10.182;2023-05-07T06:05:20;11.52;;;6.65;;
23743;SDS011;12052;53.478;10.182;2023-05-07T06:07:46;9.90;;;6.80;;
23743;SDS011;12052;53.478;10.182;2023-05-07T06:10:12;10.40;;;6.88;;
23743;SDS011;12052;53.478;10.182;2023-05-07T06:12:37;10.25;;;6.63;;
23743;SDS011;12052;53.478;10.182;2023-05-07T06:15:03;11.98;;;7.55;;
23743;SDS011;12052;53.478;10.182;2023-05-07T06:17:29;10.70;;;6.43;;
23743;SDS011;12052;53.478;10.182;2023-05-07T06:19:55;14.75;;;7.43;;
23743;SDS011;12052;53.478;10.182;2023-05-07T06:22:21;13.60;;;7.00;;
23743;SDS011;12052;53.478;10.182;2023-05-07T06:24:46;12.95;;;7.05;;
23743;SDS011;12052;53.478;10.182;2023-05-07T06:27:12;12.60;;;6.97;;
23743;SDS011;12052;53.478;10.182;2023-05-07T06:29:37;12.65;;;6.47;;
23743;SDS011;12052;53.478;10.182;2023-05-07T06:32:10;5.63;;;2.85;;
23743;SDS011;12052;53.478;10.182;2023-05-07T06:34:37;11.80;;;6.32;;
23743;SDS011;12052;53.478;10.182;2023-05-07T06:37:04;12.60;;;7.03;;
23743;SDS011;12052;53.478;10.182;2023-05-07T06:39:30;9.15;;;6.07;;
23743;SDS011;12052;53.478;10.182;2023-05-07T06:41:56;10.88;;;5.82;;
23743;SDS011;12052;53.478;10.182;2023-05-07T06:44:21;13.65;;;6.28;;
23743;SDS011;12052;53.478;10.182;2023-05-07T06:46:47;9.18;;;4.63;;
23743;SDS011;12052;53.478;10.182;2023-05-07T06:49:13;9.50;;;6.00;;
23743;SDS011;12052;53.478;10.182;2023-05-07T06:51:38;10.15;;;6.57;;
23743;SDS011;12052;53.478;10.182;2023-05-07T06:54:04;10.27;;;5.45;;
23743;SDS011;12052;53.478;10.182;2023-05-07T06:56:30;10.65;;;5.88;;
23743;SDS011;12052;53.478;10.182;2023-05-07T06:58:57;11.52;;;6.38;;
23743;SDS011;12052;53.478;10.182;2023-05-07T07:01:22;11.13;;;6.30;;
23743;SDS011;12052;53.478;10.182;2023-05-07T07:03:48;11.90;;;6.63;;
23743;SDS011;12052;53.478;10.182;2023-05-07T07:06:14;12.00;;;6.13;;
23743;SDS011;12052;53.478;10.182;2023-05-07T07:08:39;9.82;;;5.60;;
23743;SDS011;12052;53.478;10.182;2023-05-07T07:11:05;13.00;;;5.90;;
23743;SDS011;12052;53.478;10.182;2023-05-07T07:13:31;9.48;;;5.63;;
23743;SDS011;12052;53.478;10.182;2023-05-07T07:15:57;13.23;;;6.13;;
23743;SDS011;12052;53.478;10.182;2023-05-07T07:18:23;8.85;;;5.68;;
23743;SDS011;12052;53.478;10.182;2023-05-07T07:20:48;8.60;;;5.18;;
23743;SDS011;12052;53.478;10.182;2023-05-07T07:23:14;11.13;;;5.65;;
23743;SDS011;12052;53.478;10.182;2023-05-07T07:25:40;10.00;;;5.95;;
23743;SDS011;12052;53.478;10.182;2023-05-07T07:28:06;9.82;;;5.47;;
23743;SDS011;12052;53.478;10.182;2023-05-07T07:30:31;9.25;;;5.97;;
23743;SDS011;12052;53.478;10.182;2023-05-07T07:32:57;8.52;;;6.07;;
23743;SDS011;12052;53.478;10.182;2023-05-07T07:35:27;10.90;;;5.85;;
23743;SDS011;12052;53.478;10.182;2023-05-07T07:37:56;10.82;;;5.63;;
23743;SDS011;12052;53.478;10.182;2023-05-07T07:40:22;11.80;;;6.13;;
23743;SDS011;12052;53.478;10.182;2023-05-07T07:42:48;5.45;;;3.38;;
23743;SDS011;12052;53.478;10.182;2023-05-07T07:45:14;8.38;;;5.15;;
23743;SDS011;12052;53.478;10.182;2023-05-07T07:47:40;9.77;;;5.28;;
23743;SDS011;12052;53.478;10.182;2023-05-07T07:50:05;10.40;;;4.90;;
23743;SDS011;12052;53.478;10.182;2023-05-07T07:52:32;11.25;;;4.93;;
23743;SDS011;12052;53.478;10.182;2023-05-07T07:54:58;9.65;;;5.70;;
23743;SDS011;12052;53.478;10.182;2023-05-07T07:57:23;9.43;;;5.18;;
23743;SDS011;12052;53.478;10.182;2023-05-07T07:59:49;8.73;;;5.30;;
23743;SDS011;12052;53.478;10.182;2023-05-07T08:02:15;10.40;;;5.18;;
23743;SDS011;12052;53.478;10.182;2023-05-07T08:04:41;8.63;;;5.40;;
23743;SDS011;12052;53.478;10.182;2023-05-07T08:07:08;10.70;;;5.38;;
23743;SDS011;12052;53.478;10.182;2023-05-07T08:09:34;7.35;;;4.93;;
23743;SDS011;12052;53.478;10.182;2023-05-07T08:12:00;7.55;;;5.28;;
23743;SDS011;12052;53.478;10.182;2023-05-07T08:14:26;10.43;;;5.72;;
23743;SDS011;12052;53.478;10.182;2023-05-07T08:16:53;7.05;;;5.30;;
23743;SDS011;12052;53.478;10.182;2023-05-07T08:19:19;7.85;;;5.40;;
23743;SDS011;12052;53.478;10.182;2023-05-07T08:21:45;8.52;;;5.57;;
23743;SDS011;12052;53.478;10.182;2023-05-07T08:24:12;10.02;;;5.28;;
23743;SDS011;12052;53.478;10.182;2023-05-07T08:26:39;11.93;;;5.57;;
23743;SDS011;12052;53.478;10.182;2023-05-07T08:29:05;9.95;;;5.25;;
23743;SDS011;12052;53.478;10.182;2023-05-07T08:31:30;11.60;;;6.25;;
23743;SDS011;12052;53.478;10.182;2023-05-07T08:33:57;10.88;;;6.53;;
23743;SDS011;12052;53.478;10.182;2023-05-07T08:36:23;10.07;;;5.53;;
23743;SDS011;12052;53.478;10.182;2023-05-07T08:38:48;8.93;;;5.43;;
23743;SDS011;12052;53.478;10.182;2023-05-07T08:41:14;9.85;;;5.28;;
23743;SDS011;12052;53.478;10.182;2023-05-07T08:43:41;9.73;;;5.78;;
23743;SDS011;12052;53.478;10.182;2023-05-07T08:46:07;9.10;;;5.10;;
23743;SDS011;12052;53.478;10.182;2023-05-07T08:48:35;10.05;;;5.35;;
23743;SDS011;12052;53.478;10.182;2023-05-07T08:51:01;2.53;;;2.28;;
23743;SDS011;12052;53.478;10.182;2023-05-07T08:53:27;9.60;;;5.10;;
23743;SDS011;12052;53.478;10.182;2023-05-07T08:55:53;7.03;;;4.50;;
23743;SDS011;12052;53.478;10.182;2023-05-07T08:58:18;11.68;;;4.70;;
23743;SDS011;12052;53.478;10.182;2023-05-07T09:00:44;7.25;;;4.55;;
23743;SDS011;12052;53.478;10.182;2023-05-07T09:03:12;7.22;;;5.00;;
23743;SDS011;12052;53.478;10.182;2023-05-07T09:05:38;6.60;;;4.78;;
23743;SDS011;12052;53.478;10.182;2023-05-07T09:08:05;8.82;;;4.80;;
23743;SDS011;12052;53.478;10.182;2023-05-07T09:10:32;8.68;;;5.55;;
23743;SDS011;12052;53.478;10.182;2023-05-07T09:12:59;7.80;;;5.20;;
23743;SDS011;12052;53.478;10.182;2023-05-07T09:15:26;8.65;;;4.85;;
23743;SDS011;12052;53.478;10.182;2023-05-07T09:17:53;8.30;;;4.72;;
23743;SDS011;12052;53.478;10.182;2023-05-07T09:20:19;8.23;;;4.88;;
23743;SDS011;12052;53.478;10.182;2023-05-07T09:22:45;6.78;;;5.03;;
23743;SDS011;12052;53.478;10.182;2023-05-07T09:25:10;8.65;;;5.30;;
23743;SDS011;12052;53.478;10.182;2023-05-07T09:27:36;7.47;;;5.35;;
23743;SDS011;12052;53.478;10.182;2023-05-07T09:30:05;9.27;;;5.18;;
23743;SDS011;12052;53.478;10.182;2023-05-07T09:32:35;7.15;;;4.75;;
23743;SDS011;12052;53.478;10.182;2023-05-07T09:35:04;8.65;;;5.15;;
23743;SDS011;12052;53.478;10.182;2023-05-07T09:37:30;10.45;;;5.50;;
23743;SDS011;12052;53.478;10.182;2023-05-07T09:39:57;9.63;;;5.38;;
23743;SDS011;12052;53.478;10.182;2023-05-07T09:42:23;8.10;;;4.97;;
23743;SDS011;12052;53.478;10.182;2023-05-07T09:44:51;9.13;;;5.22;;
23743;SDS011;12052;53.478;10.182;2023-05-07T09:47:18;7.80;;;5.10;;
23743;SDS011;12052;53.478;10.182;2023-05-07T09:49:46;8.13;;;5.10;;
23743;SDS011;12052;53.478;10.182;2023-05-07T09:52:13;9.13;;;5.18;;
23743;SDS011;12052;53.478;10.182;2023-05-07T09:54:40;10.18;;;5.13;;
23743;SDS011;12052;53.478;10.182;2023-05-07T09:57:08;9.63;;;6.35;;
23743;SDS011;12052;53.478;10.182;2023-05-07T09:59:37;7.97;;;5.55;;
23743;SDS011;12052;53.478;10.182;2023-05-07T10:02:03;9.30;;;5.50;;
23743;SDS011;12052;53.478;10.182;2023-05-07T10:04:29;8.95;;;5.35;;
23743;SDS011;12052;53.478;10.182;2023-05-07T10:06:56;6.13;;;4.65;;
23743;SDS011;12052;53.478;10.182;2023-05-07T10:09:22;7.93;;;4.85;;
23743;SDS011;12052;53.478;10.182;2023-05-07T10:11:48;11.73;;;4.70;;
23743;SDS011;12052;53.478;10.182;2023-05-07T10:14:14;8.13;;;4.57;;
23743;SDS011;12052;53.478;10.182;2023-05-07T10:16:41;6.47;;;4.40;;
23743;SDS011;12052;53.478;10.182;2023-05-07T10:19:07;7.38;;;4.90;;
23743;SDS011;12052;53.478;10.182;2023-05-07T10:21:36;9.95;;;5.68;;
23743;SDS011;12052;53.478;10.182;2023-05-07T10:24:04;9.50;;;5.70;;
23743;SDS011;12052;53.478;10.182;2023-05-07T10:26:38;8.25;;;4.68;;
23743;SDS011;12052;53.478;10.182;2023-05-07T10:29:15;8.52;;;4.97;;
23743;SDS011;12052;53.478;10.182;2023-05-07T10:34:24;6.72;;;4.05;;
23743;SDS011;12052;53.478;10.182;2023-05-07T10:36:54;6.93;;;4.38;;
23743;SDS011;12052;53.478;10.182;2023-05-07T10:39:21;7.15;;;4.63;;
23743;SDS011;12052;53.478;10.182;2023-05-07T10:41:47;5.50;;;3.90;;
23743;SDS011;12052;53.478;10.182;2023-05-07T10:44:24;5.93;;;4.22;;
23743;SDS011;12052;53.478;10.182;2023-05-07T10:47:07;8.52;;;3.75;;
23743;SDS011;12052;53.478;10.182;2023-05-07T10:49:34;7.70;;;5.03;;
23743;SDS011;12052;53.478;10.182;2023-05-07T10:52:11;6.07;;;4.40;;
23743;SDS011;12052;53.478;10.182;2023-05-07T10:54:48;6.75;;;4.30;;
23743;SDS011;12052;53.478;10.182;2023-05-07T10:57:39;4.82;;;3.75;;
23743;SDS011;12052;53.478;10.182;2023-05-07T11:05:24;5.72;;;3.30;;
23743;SDS011;12052;53.478;10.182;2023-05-07T11:07:53;5.18;;;3.95;;
23743;SDS011;12052;53.478;10.182;2023-05-07T11:10:20;8.77;;;4.15;;
23743;SDS011;12052;53.478;10.182;2023-05-07T11:12:47;6.85;;;4.28;;
23743;SDS011;12052;53.478;10.182;2023-05-07T11:15:14;7.15;;;4.45;;
23743;SDS011;12052;53.478;10.182;2023-05-07T11:17:58;5.47;;;3.97;;
23743;SDS011;12052;53.478;10.182;2023-05-07T11:26:05;6.55;;;4.68;;
23743;SDS011;12052;53.478;10.182;2023-05-07T11:28:37;6.72;;;4.40;;
23743;SDS011;12052;53.478;10.182;2023-05-07T11:33:30;7.63;;;4.72;;
23743;SDS011;12052;53.478;10.182;2023-05-07T11:35:56;5.93;;;4.00;;
23743;SDS011;12052;53.478;10.182;2023-05-07T11:38:22;5.40;;;3.75;;
23743;SDS011;12052;53.478;10.182;2023-05-07T11:40:59;6.82;;;4.55;;
23743;SDS011;12052;53.478;10.182;2023-05-07T11:43:26;8.70;;;5.78;;
23743;SDS011;12052;53.478;10.182;2023-05-07T11:45:51;8.70;;;4.45;;
23743;SDS011;12052;53.478;10.182;2023-05-07T11:48:17;8.23;;;4.00;;
23743;SDS011;12052;53.478;10.182;2023-05-07T11:53:24;6.50;;;3.95;;
23743;SDS011;12052;53.478;10.182;2023-05-07T11:55:57;4.63;;;3.65;;
23743;SDS011;12052;53.478;10.182;2023-05-07T11:58:23;5.70;;;3.35;;
23743;SDS011;12052;53.478;10.182;2023-05-07T12:00:50;4.85;;;3.53;;
23743;SDS011;12052;53.478;10.182;2023-05-07T12:03:16;5.30;;;3.38;;
23743;SDS011;12052;53.478;10.182;2023-05-07T12:05:45;3.95;;;3.00;;
23743;SDS011;12052;53.478;10.182;2023-05-07T12:08:15;4.43;;;3.35;;
23743;SDS011;12052;53.478;10.182;2023-05-07T12:10:41;5.20;;;3.50;;
23743;SDS011;12052;53.478;10.182;2023-05-07T12:13:17;4.35;;;2.55;;
23743;SDS011;12052;53.478;10.182;2023-05-07T12:15:44;4.65;;;3.35;;
23743;SDS011;12052;53.478;10.182;2023-05-07T12:18:10;4.40;;;3.10;;
23743;SDS011;12052;53.478;10.182;2023-05-07T12:20:36;6.75;;;3.67;;
23743;SDS011;12052;53.478;10.182;2023-05-07T12:23:02;4.32;;;3.33;;
23743;SDS011;12052;53.478;10.182;2023-05-07T12:25:31;4.40;;;3.20;;
23743;SDS011;12052;53.478;10.182;2023-05-07T12:28:04;3.00;;;2.63;;
23743;SDS011;12052;53.478;10.182;2023-05-07T12:30:31;3.00;;;1.98;;
23743;SDS011;12052;53.478;10.182;2023-05-07T12:33:01;3.83;;;2.97;;
23743;SDS011;12052;53.478;10.182;2023-05-07T12:35:27;4.32;;;3.22;;
23743;SDS011;12052;53.478;10.182;2023-05-07T12:37:57;4.03;;;2.90;;
23743;SDS011;12052;53.478;10.182;2023-05-07T12:40:29;4.30;;;3.00;;
23743;SDS011;12052;53.478;10.182;2023-05-07T12:43:04;5.22;;;2.97;;
23743;SDS011;12052;53.478;10.182;2023-05-07T12:45:30;4.45;;;3.05;;
23743;SDS011;12052;53.478;10.182;2023-05-07T12:47:55;3.53;;;2.97;;
23743;SDS011;12052;53.478;10.182;2023-05-07T12:50:21;3.42;;;2.83;;
23743;SDS011;12052;53.478;10.182;2023-05-07T12:52:47;4.57;;;2.95;;
23743;SDS011;12052;53.478;10.182;2023-05-07T12:55:14;3.50;;;3.00;;
23743;SDS011;12052;53.478;10.182;2023-05-07T12:57:49;7.57;;;2.67;;
23743;SDS011;12052;53.478;10.182;2023-05-07T13:00:16;5.45;;;3.08;;
23743;SDS011;12052;53.478;10.182;2023-05-07T13:02:43;3.47;;;2.78;;
23743;SDS011;12052;53.478;10.182;2023-05-07T13:05:10;6.50;;;2.88;;
23743;SDS011;12052;53.478;10.182;2023-05-07T13:07:35;3.78;;;2.72;;
23743;SDS011;12052;53.478;10.182;2023-05-07T13:10:02;2.78;;;2.38;;
23743;SDS011;12052;53.478;10.182;2023-05-07T13:12:28;3.83;;;2.80;;
23743;SDS011;12052;53.478;10.182;2023-05-07T13:14:54;4.13;;;2.70;;
23743;SDS011;12052;53.478;10.182;2023-05-07T13:17:20;5.07;;;2.55;;
23743;SDS011;12052;53.478;10.182;2023-05-07T13:19:45;3.25;;;2.42;;
23743;SDS011;12052;53.478;10.182;2023-05-07T13:22:11;4.43;;;2.80;;
23743;SDS011;12052;53.478;10.182;2023-05-07T13:24:36;2.55;;;2.20;;
23743;SDS011;12052;53.478;10.182;2023-05-07T13:27:02;3.42;;;2.47;;
23743;SDS011;12052;53.478;10.182;2023-05-07T13:29:28;3.40;;;2.50;;
23743;SDS011;12052;53.478;10.182;2023-05-07T13:31:58;2.70;;;2.13;;
23743;SDS011;12052;53.478;10.182;2023-05-07T13:34:24;6.03;;;2.47;;
23743;SDS011;12052;53.478;10.182;2023-05-07T13:36:49;3.25;;;2.53;;
23743;SDS011;12052;53.478;10.182;2023-05-07T13:39:15;3.30;;;2.40;;
23743;SDS011;12052;53.478;10.182;2023-05-07T13:41:41;4.10;;;2.28;;
23743;SDS011;12052;53.478;10.182;2023-05-07T13:44:06;3.83;;;2.30;;
23743;SDS011;12052;53.478;10.182;2023-05-07T13:46:32;3.33;;;2.08;;
23743;SDS011;12052;53.478;10.182;2023-05-07T13:48:58;2.88;;;2.38;;
23743;SDS011;12052;53.478;10.182;2023-05-07T13:51:23;3.25;;;2.33;;
23743;SDS011;12052;53.478;10.182;2023-05-07T13:53:49;2.80;;;2.00;;
23743;SDS011;12052;53.478;10.182;2023-05-07T13:56:15;2.03;;;1.83;;
23743;SDS011;12052;53.478;10.182;2023-05-07T13:58:41;3.00;;;2.25;;
23743;SDS011;12052;53.478;10.182;2023-05-07T14:01:06;2.70;;;2.17;;
23743;SDS011;12052;53.478;10.182;2023-05-07T14:03:32;2.78;;;2.10;;
23743;SDS011;12052;53.478;10.182;2023-05-07T14:05:59;4.32;;;1.90;;
23743;SDS011;12052;53.478;10.182;2023-05-07T14:08:26;2.30;;;1.95;;
23743;SDS011;12052;53.478;10.182;2023-05-07T14:10:52;2.92;;;2.15;;
23743;SDS011;12052;53.478;10.182;2023-05-07T14:13:17;6.50;;;2.17;;
23743;SDS011;12052;53.478;10.182;2023-05-07T14:15:43;3.17;;;2.03;;
23743;SDS011;12052;53.478;10.182;2023-05-07T14:18:11;2.25;;;1.67;;
23743;SDS011;12052;53.478;10.182;2023-05-07T14:20:37;3.05;;;1.85;;
23743;SDS011;12052;53.478;10.182;2023-05-07T14:23:03;2.42;;;2.10;;
23743;SDS011;12052;53.478;10.182;2023-05-07T14:25:29;2.83;;;1.95;;
23743;SDS011;12052;53.478;10.182;2023-05-07T14:27:54;2.63;;;2.03;;
23743;SDS011;12052;53.478;10.182;2023-05-07T14:30:20;1.70;;;1.60;;
23743;SDS011;12052;53.478;10.182;2023-05-07T14:32:49;2.33;;;1.80;;
23743;SDS011;12052;53.478;10.182;2023-05-07T14:35:15;2.40;;;1.83;;
23743;SDS011;12052;53.478;10.182;2023-05-07T14:37:40;1.83;;;1.65;;
23743;SDS011;12052;53.478;10.182;2023-05-07T14:40:06;3.50;;;1.95;;
23743;SDS011;12052;53.478;10.182;2023-05-07T14:42:32;2.28;;;2.00;;